createdAt,value
2022-10-14T00:04:17.367Z,13.42
2022-10-14T00:09:22.396Z,13.40
2022-10-14T00:14:26.094Z,13.40
2022-10-14T00:19:31.351Z,13.29
2022-10-14T00:24:36.361Z,13.36
2022-10-14T00:29:40.215Z,13.39
2022-10-14T00:34:44.297Z,13.38
2022-10-14T00:39:52.364Z,13.36
2022-10-14T00:45:08.605Z,13.35
2022-10-14T00:50:13.799Z,13.30
2022-10-14T00:55:20.470Z,13.31
2022-10-14T01:00:24.469Z,13.36
2022-10-14T01:05:36.066Z,13.27
2022-10-14T01:10:49.640Z,13.26
2022-10-14T01:16:05.658Z,13.24
2022-10-14T01:21:16.434Z,13.28
2022-10-14T01:26:41.599Z,13.24
2022-10-14T01:31:51.702Z,13.19
2022-10-14T01:36:59.289Z,13.14
2022-10-14T01:42:08.164Z,13.10
2022-10-14T01:47:16.607Z,13.10
2022-10-14T01:52:22.982Z,13.09
2022-10-14T01:57:29.734Z,13.07
2022-10-14T02:02:37.370Z,13.09
2022-10-14T02:07:44.602Z,13.07
2022-10-14T02:13:01.927Z,13.08
2022-10-14T02:18:14.654Z,13.12
2022-10-14T02:23:22.722Z,13.13
2022-10-14T02:28:29.506Z,13.14
2022-10-14T02:33:37.981Z,13.15
2022-10-14T02:38:46.993Z,13.17
2022-10-14T02:43:51.031Z,13.21
2022-10-14T02:48:56.803Z,13.22
2022-10-14T02:54:01.592Z,13.25
2022-10-14T02:59:05.650Z,13.24
2022-10-14T03:04:10.847Z,13.17
2022-10-14T03:09:16.183Z,13.17
2022-10-14T03:14:21.120Z,13.20
2022-10-14T03:19:27.019Z,13.21
2022-10-14T03:24:31.080Z,13.23
2022-10-14T03:29:37.854Z,13.21
2022-10-14T03:34:45.392Z,13.24
2022-10-14T03:39:49.884Z,13.23
2022-10-14T03:44:54.569Z,13.23
2022-10-14T03:50:00.843Z,13.23
2022-10-14T03:55:05.380Z,13.23
2022-10-14T04:00:10.471Z,13.23
2022-10-14T04:05:18.351Z,13.25
2022-10-14T04:10:22.730Z,13.23
2022-10-14T04:15:27.849Z,13.24
2022-10-14T04:20:34.545Z,13.19
2022-10-14T04:25:40.036Z,13.17
2022-10-14T04:30:44.038Z,13.18
2022-10-14T04:35:51.601Z,13.23
2022-10-14T04:40:57.002Z,13.16
2022-10-14T04:46:01.275Z,13.17
2022-10-14T04:51:07.671Z,13.20
2022-10-14T04:56:12.047Z,13.17
2022-10-14T05:01:18.316Z,13.20
2022-10-14T05:06:24.096Z,13.20
2022-10-14T05:11:27.991Z,13.23
2022-10-14T05:16:32.690Z,13.23
2022-10-14T05:21:38.072Z,13.26
2022-10-14T05:26:43.533Z,13.28
2022-10-14T05:31:47.686Z,13.29
2022-10-14T05:36:53.875Z,13.29
2022-10-14T05:41:58.484Z,13.23
2022-10-14T05:47:02.884Z,13.28
2022-10-14T05:52:08.018Z,13.28
2022-10-14T05:57:11.917Z,13.32
2022-10-14T06:02:15.978Z,13.34
2022-10-14T06:07:21.221Z,13.36
2022-10-14T06:12:25.043Z,13.38
2022-10-14T06:17:29.871Z,13.33
2022-10-14T06:22:35.262Z,13.38
2022-10-14T06:27:38.907Z,13.40
2022-10-14T06:32:42.600Z,13.43
2022-10-14T06:37:47.975Z,13.44
2022-10-14T06:42:52.317Z,13.45
2022-10-14T06:47:55.966Z,13.46
2022-10-14T06:53:00.954Z,13.54
2022-10-14T06:58:04.659Z,13.51
2022-10-14T07:03:08.366Z,13.53
2022-10-14T07:08:15.468Z,13.54
2022-10-14T07:13:19.803Z,13.54
2022-10-14T07:18:23.600Z,13.54
2022-10-14T07:23:28.624Z,13.56
2022-10-14T07:28:34.239Z,13.55
2022-10-14T07:33:40.291Z,13.60
2022-10-14T07:38:45.553Z,13.63
2022-10-14T07:43:52.352Z,13.66
2022-10-14T07:48:57.743Z,13.67
2022-10-14T07:54:05.534Z,13.71
2022-10-14T07:59:09.400Z,13.76
2022-10-14T08:04:13.063Z,13.76
2022-10-14T08:09:19.475Z,13.79
2022-10-14T08:14:23.427Z,13.78
2022-10-14T08:19:27.115Z,13.91
2022-10-14T08:24:32.156Z,13.93
2022-10-14T08:29:35.896Z,13.94
2022-10-14T08:34:39.633Z,13.96
2022-10-14T08:39:44.829Z,14.00
2022-10-14T08:44:52.649Z,14.05
2022-10-14T08:50:02.868Z,14.03
2022-10-14T08:55:24.331Z,13.97
2022-10-14T09:00:30.846Z,14.04
2022-10-14T09:05:34.672Z,14.11
2022-10-14T09:10:43.353Z,14.10
2022-10-14T09:15:51.365Z,14.17
2022-10-14T09:20:57.399Z,14.18
2022-10-14T09:26:08.571Z,14.22
2022-10-14T09:31:14.208Z,14.28
2022-10-14T09:36:20.635Z,14.31
2022-10-14T09:41:30.051Z,14.36
2022-10-14T09:46:33.912Z,14.52
2022-10-14T09:51:37.784Z,14.61
2022-10-14T09:56:42.951Z,14.60
2022-10-14T10:01:51.860Z,14.62
2022-10-14T10:06:56.891Z,14.65
2022-10-14T10:12:01.990Z,14.62
2022-10-14T10:17:19.793Z,14.60
2022-10-14T10:22:26.598Z,14.70
2022-10-14T10:27:35.383Z,14.66
2022-10-14T10:32:47.291Z,14.64
2022-10-14T10:38:02.715Z,14.66
2022-10-14T10:43:28.918Z,14.71
2022-10-14T10:48:42.795Z,14.70
2022-10-14T10:54:09.148Z,14.64
2022-10-14T10:59:41.226Z,14.64
2022-10-14T11:04:47.842Z,14.70
2022-10-14T11:10:18.958Z,14.80
2022-10-14T11:15:34.744Z,14.80
2022-10-14T11:20:49.725Z,14.80
2022-10-14T11:26:00.960Z,14.93
2022-10-14T11:31:13.488Z,14.91
2022-10-14T11:36:32.006Z,14.89
2022-10-14T11:42:04.981Z,14.88
2022-10-14T11:47:14.207Z,15.02
2022-10-14T11:52:24.821Z,15.08
2022-10-14T11:57:35.230Z,15.21
2022-10-14T12:02:46.047Z,15.29
2022-10-14T12:08:03.856Z,15.36
2022-10-14T12:13:15.806Z,15.38
2022-10-14T12:18:21.910Z,15.42
2022-10-14T12:23:34.454Z,15.35
2022-10-14T12:28:39.186Z,15.42
2022-10-14T12:39:43.077Z,15.95
2022-10-14T12:44:51.862Z,15.95
2022-10-14T12:50:02.362Z,15.59
2022-10-14T12:55:18.012Z,15.39
2022-10-14T13:00:31.871Z,15.53
2022-10-14T13:05:38.918Z,15.47
2022-10-14T13:10:47.912Z,15.50
2022-10-14T13:15:53.069Z,15.58
2022-10-14T13:20:56.763Z,15.52
2022-10-14T13:26:11.834Z,15.59
2022-10-14T13:31:22.443Z,15.45
2022-10-14T13:36:37.611Z,15.57
2022-10-14T13:41:45.314Z,15.46
2022-10-14T13:46:50.156Z,15.56
2022-10-14T13:51:57.902Z,15.54
2022-10-14T13:57:38.723Z,15.67
2022-10-14T14:02:33.747Z,16.13
2022-10-14T14:08:21.755Z,16.80
2022-10-14T14:13:06.185Z,16.98
2022-10-14T14:18:33.853Z,17.10
2022-10-14T14:23:51.608Z,17.14
2022-10-14T14:28:56.733Z,17.04
2022-10-14T14:34:01.875Z,16.91
2022-10-14T14:39:05.579Z,17.09
2022-10-14T14:44:26.156Z,17.34
2022-10-14T14:49:33.032Z,17.73
2022-10-14T14:54:45.512Z,17.89
2022-10-14T15:00:00.451Z,17.48
2022-10-14T15:05:06.644Z,17.48
2022-10-14T15:10:23.044Z,17.39
2022-10-14T15:15:31.157Z,17.30
2022-10-14T15:20:37.740Z,17.29
2022-10-14T15:25:41.609Z,17.29
2022-10-14T15:30:55.658Z,17.28
2022-10-14T15:36:01.770Z,17.13
2022-10-14T15:41:06.275Z,17.05
2022-10-14T15:46:31.972Z,16.90
2022-10-14T15:51:35.663Z,16.74
2022-10-14T15:56:40.461Z,16.60
2022-10-14T16:01:46.224Z,16.50
2022-10-14T16:06:50.417Z,16.38
2022-10-14T16:11:58.004Z,16.29
2022-10-14T16:17:03.887Z,16.19
2022-10-14T16:22:07.642Z,16.05
2022-10-14T16:27:13.126Z,16.00
2022-10-14T16:32:18.196Z,15.90
2022-10-14T16:37:22.166Z,15.84
2022-10-14T16:42:26.071Z,15.76
2022-10-14T16:47:31.186Z,15.64
2022-10-14T16:52:55.245Z,15.51
2022-10-14T16:57:58.970Z,15.37
2022-10-14T17:03:04.205Z,15.22
2022-10-14T17:08:07.994Z,15.12
2022-10-14T17:13:11.818Z,15.02
2022-10-14T17:18:21.049Z,14.91
2022-10-14T17:23:26.970Z,14.88
2022-10-14T17:28:31.012Z,14.83
2022-10-14T17:33:36.416Z,14.77
2022-10-14T17:38:40.147Z,14.69
2022-10-14T17:43:45.883Z,14.64
2022-10-14T17:48:52.563Z,14.62
2022-10-14T17:53:58.370Z,14.56
2022-10-14T17:59:05.464Z,14.54
2022-10-14T18:04:10.742Z,14.52
2022-10-14T18:09:14.977Z,14.44
2022-10-14T18:14:18.637Z,14.35
2022-10-14T18:19:23.851Z,14.26
2022-10-14T18:24:27.810Z,14.20
2022-10-14T18:29:31.674Z,14.12
2022-10-14T18:34:36.807Z,14.04
2022-10-14T18:39:40.568Z,13.97
2022-10-14T18:44:44.453Z,13.94
2022-10-14T18:49:51.125Z,13.88
2022-10-14T18:54:54.974Z,13.81
2022-10-14T18:59:59.003Z,13.76
2022-10-14T19:05:04.295Z,13.71
2022-10-14T19:10:09.042Z,13.63
2022-10-14T19:15:13.051Z,13.57
2022-10-14T19:20:18.458Z,13.51
2022-10-14T19:25:22.137Z,13.45
2022-10-14T19:30:26.571Z,13.41
2022-10-14T19:35:31.647Z,13.33
2022-10-14T19:40:35.393Z,13.26
2022-10-14T19:45:41.275Z,13.22
2022-10-14T19:50:46.326Z,13.18
2022-10-14T19:55:50.064Z,13.10
2022-10-14T20:00:53.895Z,13.03
2022-10-14T20:06:02.201Z,12.94
2022-10-14T20:11:06.775Z,12.88
2022-10-14T20:16:11.230Z,12.76
2022-10-14T20:21:17.282Z,12.75
2022-10-14T20:26:22.421Z,12.71
2022-10-14T20:31:26.367Z,12.66
2022-10-14T20:36:31.394Z,12.66
2022-10-14T20:41:35.075Z,12.64
2022-10-14T20:46:38.851Z,12.66
2022-10-14T20:51:44.115Z,12.68
2022-10-14T20:56:47.792Z,12.67
2022-10-14T21:01:51.506Z,12.68
2022-10-14T21:06:56.609Z,12.71
2022-10-14T21:12:00.655Z,12.74
2022-10-14T21:17:04.367Z,12.72
2022-10-14T21:22:10.156Z,12.74
2022-10-14T21:27:13.942Z,12.73
2022-10-14T21:32:17.722Z,12.71
2022-10-14T21:37:22.789Z,12.68
2022-10-14T21:42:26.543Z,12.68
2022-10-14T21:47:30.243Z,12.70
2022-10-14T21:52:36.316Z,12.70
2022-10-14T21:57:40.045Z,12.70
2022-10-14T22:02:43.826Z,12.71
2022-10-14T22:07:49.379Z,12.74
2022-10-14T22:12:53.097Z,12.78
2022-10-14T22:17:56.776Z,12.78
2022-10-14T22:23:01.797Z,12.78
2022-10-14T22:28:06.413Z,12.76
2022-10-14T22:33:10.137Z,12.73
2022-10-14T22:38:15.432Z,12.67
2022-10-14T22:43:19.258Z,12.63
2022-10-14T22:48:23.006Z,12.58
2022-10-14T22:53:28.871Z,12.55
2022-10-14T22:58:33.268Z,12.51
2022-10-14T23:03:37.191Z,12.45
2022-10-14T23:08:42.957Z,12.37
2022-10-14T23:13:47.079Z,12.31
2022-10-14T23:18:51.816Z,12.24
2022-10-14T23:23:59.837Z,12.18
2022-10-14T23:29:06.210Z,12.12
2022-10-14T23:34:13.347Z,12.08
2022-10-14T23:39:18.386Z,12.12
2022-10-14T23:44:22.079Z,12.14
2022-10-14T23:49:26.449Z,12.17
2022-10-14T23:54:31.711Z,12.24
2022-10-14T23:59:35.413Z,12.30
